sensor_id;sensor_type;location;lat;lon;timestamp;temperature;humidity
40538;DHT22;27925;41.874;12.526;2023-04-08T00:00:43;13.20;60.50
40538;DHT22;27925;41.874;12.526;2023-04-08T00:03:09;13.30;60.70
40538;DHT22;27925;41.874;12.526;2023-04-08T00:05:35;13.30;60.40
40538;DHT22;27925;41.874;12.526;2023-04-08T00:08:01;13.30;60.40
40538;DHT22;27925;41.874;12.526;2023-04-08T00:10:27;13.40;60.50
40538;DHT22;27925;41.874;12.526;2023-04-08T00:12:52;13.40;60.80
40538;DHT22;27925;41.874;12.526;2023-04-08T00:15:18;13.40;60.60
40538;DHT22;27925;41.874;12.526;2023-04-08T00:17:44;13.50;60.70
40538;DHT22;27925;41.874;12.526;2023-04-08T00:20:10;13.50;60.80
40538;DHT22;27925;41.874;12.526;2023-04-08T00:22:36;13.50;61.00
40538;DHT22;27925;41.874;12.526;2023-04-08T00:25:02;13.50;61.10
40538;DHT22;27925;41.874;12.526;2023-04-08T00:27:31;13.50;61.30
40538;DHT22;27925;41.874;12.526;2023-04-08T00:29:57;13.60;61.60
40538;DHT22;27925;41.874;12.526;2023-04-08T00:32:24;13.60;61.40
40538;DHT22;27925;41.874;12.526;2023-04-08T00:34:50;13.60;61.10
40538;DHT22;27925;41.874;12.526;2023-04-08T00:37:16;13.60;61.20
40538;DHT22;27925;41.874;12.526;2023-04-08T00:39:42;13.60;61.40
40538;DHT22;27925;41.874;12.526;2023-04-08T00:42:08;13.70;61.30
40538;DHT22;27925;41.874;12.526;2023-04-08T00:44:34;13.70;61.60
40538;DHT22;27925;41.874;12.526;2023-04-08T00:47:00;13.70;61.40
40538;DHT22;27925;41.874;12.526;2023-04-08T00:49:26;13.70;61.50
40538;DHT22;27925;41.874;12.526;2023-04-08T00:51:53;13.70;61.50
40538;DHT22;27925;41.874;12.526;2023-04-08T00:54:20;13.80;61.70
40538;DHT22;27925;41.874;12.526;2023-04-08T00:56:45;13.80;61.60
40538;DHT22;27925;41.874;12.526;2023-04-08T00:59:11;13.80;61.50
40538;DHT22;27925;41.874;12.526;2023-04-08T01:01:43;13.80;61.40
40538;DHT22;27925;41.874;12.526;2023-04-08T01:04:39;13.90;61.50
40538;DHT22;27925;41.874;12.526;2023-04-08T01:07:22;13.90;62.10
40538;DHT22;27925;41.874;12.526;2023-04-08T01:12:57;13.90;61.70
40538;DHT22;27925;41.874;12.526;2023-04-08T01:15:25;13.80;62.30
40538;DHT22;27925;41.874;12.526;2023-04-08T01:17:56;13.80;61.80
40538;DHT22;27925;41.874;12.526;2023-04-08T01:20:24;13.80;61.80
40538;DHT22;27925;41.874;12.526;2023-04-08T01:25:36;13.70;62.00
40538;DHT22;27925;41.874;12.526;2023-04-08T01:28:09;13.70;61.40
40538;DHT22;27925;41.874;12.526;2023-04-08T01:30:38;13.70;61.50
40538;DHT22;27925;41.874;12.526;2023-04-08T01:33:05;13.70;61.30
40538;DHT22;27925;41.874;12.526;2023-04-08T01:35:32;13.70;61.10
40538;DHT22;27925;41.874;12.526;2023-04-08T01:37:59;13.70;61.30
40538;DHT22;27925;41.874;12.526;2023-04-08T01:40:26;13.70;61.10
40538;DHT22;27925;41.874;12.526;2023-04-08T01:42:54;13.70;61.00
40538;DHT22;27925;41.874;12.526;2023-04-08T01:45:21;13.70;61.00
40538;DHT22;27925;41.874;12.526;2023-04-08T01:47:48;13.80;60.80
40538;DHT22;27925;41.874;12.526;2023-04-08T01:50:15;13.80;60.80
40538;DHT22;27925;41.874;12.526;2023-04-08T01:52:46;13.70;60.60
40538;DHT22;27925;41.874;12.526;2023-04-08T01:55:12;13.80;60.60
40538;DHT22;27925;41.874;12.526;2023-04-08T01:57:39;13.70;60.50
40538;DHT22;27925;41.874;12.526;2023-04-08T02:00:11;13.70;60.40
40538;DHT22;27925;41.874;12.526;2023-04-08T02:02:38;13.60;60.50
40538;DHT22;27925;41.874;12.526;2023-04-08T02:05:06;13.60;60.40
40538;DHT22;27925;41.874;12.526;2023-04-08T02:07:31;13.60;60.60
40538;DHT22;27925;41.874;12.526;2023-04-08T02:09:57;13.60;60.10
40538;DHT22;27925;41.874;12.526;2023-04-08T02:12:23;13.50;60.10
40538;DHT22;27925;41.874;12.526;2023-04-08T02:14:49;13.50;60.20
40538;DHT22;27925;41.874;12.526;2023-04-08T02:20:10;13.50;60.20
40538;DHT22;27925;41.874;12.526;2023-04-08T02:25:22;13.30;60.20
40538;DHT22;27925;41.874;12.526;2023-04-08T02:27:49;13.30;60.30
40538;DHT22;27925;41.874;12.526;2023-04-08T02:30:16;13.20;60.30
40538;DHT22;27925;41.874;12.526;2023-04-08T02:32:44;13.10;60.50
40538;DHT22;27925;41.874;12.526;2023-04-08T02:35:11;13.10;60.80
40538;DHT22;27925;41.874;12.526;2023-04-08T02:37:38;13.00;61.00
40538;DHT22;27925;41.874;12.526;2023-04-08T02:40:03;13.00;61.30
40538;DHT22;27925;41.874;12.526;2023-04-08T02:42:29;12.90;61.50
40538;DHT22;27925;41.874;12.526;2023-04-08T02:44:56;12.90;61.70
40538;DHT22;27925;41.874;12.526;2023-04-08T02:47:22;12.90;61.80
40538;DHT22;27925;41.874;12.526;2023-04-08T02:49:47;12.90;61.80
40538;DHT22;27925;41.874;12.526;2023-04-08T02:52:17;12.90;61.30
40538;DHT22;27925;41.874;12.526;2023-04-08T02:54:42;12.90;61.40
40538;DHT22;27925;41.874;12.526;2023-04-08T02:57:08;12.90;61.30
40538;DHT22;27925;41.874;12.526;2023-04-08T02:59:33;12.90;61.00
40538;DHT22;27925;41.874;12.526;2023-04-08T03:02:02;12.90;61.00
40538;DHT22;27925;41.874;12.526;2023-04-08T03:04:27;12.90;60.80
40538;DHT22;27925;41.874;12.526;2023-04-08T03:06:53;12.80;60.70
40538;DHT22;27925;41.874;12.526;2023-04-08T03:09:19;12.90;60.80
40538;DHT22;27925;41.874;12.526;2023-04-08T03:11:45;12.90;61.00
40538;DHT22;27925;41.874;12.526;2023-04-08T03:14:16;13.00;61.30
40538;DHT22;27925;41.874;12.526;2023-04-08T03:16:42;13.00;61.60
40538;DHT22;27925;41.874;12.526;2023-04-08T03:19:08;12.90;61.90
40538;DHT22;27925;41.874;12.526;2023-04-08T03:21:34;12.90;62.60
40538;DHT22;27925;41.874;12.526;2023-04-08T03:23:59;12.90;63.20
40538;DHT22;27925;41.874;12.526;2023-04-08T03:26:25;12.80;63.90
40538;DHT22;27925;41.874;12.526;2023-04-08T03:28:51;12.80;64.20
40538;DHT22;27925;41.874;12.526;2023-04-08T03:31:17;12.70;64.80
40538;DHT22;27925;41.874;12.526;2023-04-08T03:33:45;12.60;65.40
40538;DHT22;27925;41.874;12.526;2023-04-08T03:36:11;12.40;66.10
40538;DHT22;27925;41.874;12.526;2023-04-08T03:38:37;12.30;66.70
40538;DHT22;27925;41.874;12.526;2023-04-08T03:41:03;12.20;68.00
40538;DHT22;27925;41.874;12.526;2023-04-08T03:43:28;12.10;68.70
40538;DHT22;27925;41.874;12.526;2023-04-08T03:45:55;12.00;69.70
40538;DHT22;27925;41.874;12.526;2023-04-08T03:48:21;12.00;69.60
40538;DHT22;27925;41.874;12.526;2023-04-08T03:50:47;12.00;70.40
40538;DHT22;27925;41.874;12.526;2023-04-08T03:53:12;12.00;70.30
40538;DHT22;27925;41.874;12.526;2023-04-08T03:55:38;12.00;70.80
40538;DHT22;27925;41.874;12.526;2023-04-08T03:58:04;11.90;71.40
40538;DHT22;27925;41.874;12.526;2023-04-08T04:00:30;11.80;71.30
40538;DHT22;27925;41.874;12.526;2023-04-08T04:02:56;11.80;71.80
40538;DHT22;27925;41.874;12.526;2023-04-08T04:05:21;11.80;72.00
40538;DHT22;27925;41.874;12.526;2023-04-08T04:07:47;11.90;72.30
40538;DHT22;27925;41.874;12.526;2023-04-08T04:10:13;11.90;72.00
40538;DHT22;27925;41.874;12.526;2023-04-08T04:12:39;11.80;72.00
40538;DHT22;27925;41.874;12.526;2023-04-08T04:15:05;11.80;72.30
40538;DHT22;27925;41.874;12.526;2023-04-08T04:17:31;11.80;72.40
40538;DHT22;27925;41.874;12.526;2023-04-08T04:19:56;11.80;72.20
40538;DHT22;27925;41.874;12.526;2023-04-08T04:22:22;11.90;72.10
40538;DHT22;27925;41.874;12.526;2023-04-08T04:24:48;11.90;72.00
40538;DHT22;27925;41.874;12.526;2023-04-08T04:27:14;11.90;72.00
40538;DHT22;27925;41.874;12.526;2023-04-08T04:29:42;11.90;72.30
40538;DHT22;27925;41.874;12.526;2023-04-08T04:32:08;11.70;72.40
40538;DHT22;27925;41.874;12.526;2023-04-08T04:34:34;11.70;72.50
40538;DHT22;27925;41.874;12.526;2023-04-08T04:36:59;11.70;72.40
40538;DHT22;27925;41.874;12.526;2023-04-08T04:39:25;11.60;72.40
40538;DHT22;27925;41.874;12.526;2023-04-08T04:41:51;11.60;72.30
40538;DHT22;27925;41.874;12.526;2023-04-08T04:44:16;11.60;72.00
40538;DHT22;27925;41.874;12.526;2023-04-08T04:46:42;11.70;71.70
40538;DHT22;27925;41.874;12.526;2023-04-08T04:49:08;11.60;71.30
40538;DHT22;27925;41.874;12.526;2023-04-08T04:51:33;11.60;71.30
40538;DHT22;27925;41.874;12.526;2023-04-08T04:53:59;11.50;71.40
40538;DHT22;27925;41.874;12.526;2023-04-08T04:56:25;11.40;71.40
40538;DHT22;27925;41.874;12.526;2023-04-08T04:58:51;11.30;71.10
40538;DHT22;27925;41.874;12.526;2023-04-08T05:01:17;11.20;71.20
40538;DHT22;27925;41.874;12.526;2023-04-08T05:03:43;11.00;71.70
40538;DHT22;27925;41.874;12.526;2023-04-08T05:06:08;10.90;71.60
40538;DHT22;27925;41.874;12.526;2023-04-08T05:08:34;10.90;72.70
40538;DHT22;27925;41.874;12.526;2023-04-08T05:11:00;10.80;73.80
40538;DHT22;27925;41.874;12.526;2023-04-08T05:13:31;10.80;73.70
40538;DHT22;27925;41.874;12.526;2023-04-08T05:15:57;10.90;74.00
40538;DHT22;27925;41.874;12.526;2023-04-08T05:18:22;11.00;73.90
40538;DHT22;27925;41.874;12.526;2023-04-08T05:20:48;11.00;73.20
40538;DHT22;27925;41.874;12.526;2023-04-08T05:23:14;10.90;73.60
40538;DHT22;27925;41.874;12.526;2023-04-08T05:25:40;11.00;74.10
40538;DHT22;27925;41.874;12.526;2023-04-08T05:28:05;11.00;74.20
40538;DHT22;27925;41.874;12.526;2023-04-08T05:30:31;10.90;74.10
40538;DHT22;27925;41.874;12.526;2023-04-08T05:32:57;10.90;73.90
40538;DHT22;27925;41.874;12.526;2023-04-08T05:35:22;10.90;74.00
40538;DHT22;27925;41.874;12.526;2023-04-08T05:37:48;10.90;74.30
40538;DHT22;27925;41.874;12.526;2023-04-08T05:40:14;10.90;74.60
40538;DHT22;27925;41.874;12.526;2023-04-08T05:42:40;10.90;74.50
40538;DHT22;27925;41.874;12.526;2023-04-08T05:45:08;10.90;74.60
40538;DHT22;27925;41.874;12.526;2023-04-08T05:47:34;11.00;75.00
40538;DHT22;27925;41.874;12.526;2023-04-08T05:49:59;11.10;75.30
40538;DHT22;27925;41.874;12.526;2023-04-08T05:52:25;11.00;74.60
40538;DHT22;27925;41.874;12.526;2023-04-08T05:54:51;11.10;74.60
40538;DHT22;27925;41.874;12.526;2023-04-08T05:57:16;11.00;74.60
40538;DHT22;27925;41.874;12.526;2023-04-08T05:59:42;11.00;74.60
40538;DHT22;27925;41.874;12.526;2023-04-08T06:02:08;11.00;74.50
40538;DHT22;27925;41.874;12.526;2023-04-08T06:04:33;11.00;74.50
40538;DHT22;27925;41.874;12.526;2023-04-08T06:06:59;10.90;75.10
40538;DHT22;27925;41.874;12.526;2023-04-08T06:09:27;11.00;75.30
40538;DHT22;27925;41.874;12.526;2023-04-08T06:11:53;10.90;75.70
40538;DHT22;27925;41.874;12.526;2023-04-08T06:14:18;10.80;76.60
40538;DHT22;27925;41.874;12.526;2023-04-08T06:16:45;10.70;76.90
40538;DHT22;27925;41.874;12.526;2023-04-08T06:19:11;10.60;77.10
40538;DHT22;27925;41.874;12.526;2023-04-08T06:21:36;10.70;77.40
40538;DHT22;27925;41.874;12.526;2023-04-08T06:24:02;10.70;77.20
40538;DHT22;27925;41.874;12.526;2023-04-08T06:26:28;10.70;76.70
40538;DHT22;27925;41.874;12.526;2023-04-08T06:28:53;10.70;77.20
40538;DHT22;27925;41.874;12.526;2023-04-08T06:31:19;10.70;77.00
40538;DHT22;27925;41.874;12.526;2023-04-08T06:33:45;10.60;77.20
40538;DHT22;27925;41.874;12.526;2023-04-08T06:36:10;10.60;79.20
40538;DHT22;27925;41.874;12.526;2023-04-08T06:38:38;10.60;79.00
40538;DHT22;27925;41.874;12.526;2023-04-08T06:41:07;10.50;78.80
40538;DHT22;27925;41.874;12.526;2023-04-08T06:43:34;10.50;78.70
40538;DHT22;27925;41.874;12.526;2023-04-08T06:46:00;10.50;78.00
40538;DHT22;27925;41.874;12.526;2023-04-08T06:48:26;10.50;78.20
40538;DHT22;27925;41.874;12.526;2023-04-08T06:50:59;10.50;78.10
40538;DHT22;27925;41.874;12.526;2023-04-08T06:53:26;10.50;78.20
40538;DHT22;27925;41.874;12.526;2023-04-08T06:55:57;10.50;77.90
40538;DHT22;27925;41.874;12.526;2023-04-08T06:58:22;10.50;78.20
40538;DHT22;27925;41.874;12.526;2023-04-08T07:00:48;10.50;78.80
40538;DHT22;27925;41.874;12.526;2023-04-08T07:03:14;10.40;78.80
40538;DHT22;27925;41.874;12.526;2023-04-08T07:05:40;10.40;79.10
40538;DHT22;27925;41.874;12.526;2023-04-08T07:08:07;10.30;78.60
40538;DHT22;27925;41.874;12.526;2023-04-08T07:10:36;10.50;79.10
40538;DHT22;27925;41.874;12.526;2023-04-08T07:13:02;10.50;78.40
40538;DHT22;27925;41.874;12.526;2023-04-08T07:15:27;10.60;77.80
40538;DHT22;27925;41.874;12.526;2023-04-08T07:17:53;10.70;77.60
40538;DHT22;27925;41.874;12.526;2023-04-08T07:20:21;10.70;77.30
40538;DHT22;27925;41.874;12.526;2023-04-08T07:22:47;10.80;76.90
40538;DHT22;27925;41.874;12.526;2023-04-08T07:25:13;10.90;76.20
40538;DHT22;27925;41.874;12.526;2023-04-08T07:27:39;10.90;76.10
40538;DHT22;27925;41.874;12.526;2023-04-08T07:30:06;10.90;75.50
40538;DHT22;27925;41.874;12.526;2023-04-08T07:32:33;10.90;76.30
40538;DHT22;27925;41.874;12.526;2023-04-08T07:34:59;10.90;75.00
40538;DHT22;27925;41.874;12.526;2023-04-08T07:37:26;11.00;74.00
40538;DHT22;27925;41.874;12.526;2023-04-08T07:39:52;11.20;73.70
40538;DHT22;27925;41.874;12.526;2023-04-08T07:42:17;11.10;73.40
40538;DHT22;27925;41.874;12.526;2023-04-08T07:44:44;11.20;73.30
40538;DHT22;27925;41.874;12.526;2023-04-08T07:47:11;11.10;72.90
40538;DHT22;27925;41.874;12.526;2023-04-08T07:49:37;11.00;72.80
40538;DHT22;27925;41.874;12.526;2023-04-08T07:52:04;11.10;72.70
40538;DHT22;27925;41.874;12.526;2023-04-08T07:54:30;11.10;72.40
40538;DHT22;27925;41.874;12.526;2023-04-08T07:56:58;11.30;72.70
40538;DHT22;27925;41.874;12.526;2023-04-08T07:59:24;11.40;72.70
40538;DHT22;27925;41.874;12.526;2023-04-08T08:01:50;11.40;72.30
40538;DHT22;27925;41.874;12.526;2023-04-08T08:04:16;11.40;72.20
40538;DHT22;27925;41.874;12.526;2023-04-08T08:06:42;11.30;72.10
40538;DHT22;27925;41.874;12.526;2023-04-08T08:09:08;11.30;71.90
40538;DHT22;27925;41.874;12.526;2023-04-08T08:11:33;11.40;72.00
40538;DHT22;27925;41.874;12.526;2023-04-08T08:13:59;11.50;72.00
40538;DHT22;27925;41.874;12.526;2023-04-08T08:16:29;11.60;71.70
40538;DHT22;27925;41.874;12.526;2023-04-08T08:18:55;11.60;71.30
40538;DHT22;27925;41.874;12.526;2023-04-08T08:21:20;11.50;71.00
40538;DHT22;27925;41.874;12.526;2023-04-08T08:23:46;11.60;71.30
40538;DHT22;27925;41.874;12.526;2023-04-08T08:26:12;11.70;71.30
40538;DHT22;27925;41.874;12.526;2023-04-08T08:28:39;11.70;70.80
40538;DHT22;27925;41.874;12.526;2023-04-08T08:31:05;11.70;70.10
40538;DHT22;27925;41.874;12.526;2023-04-08T08:33:31;11.70;70.70
40538;DHT22;27925;41.874;12.526;2023-04-08T08:35:57;11.70;70.00
40538;DHT22;27925;41.874;12.526;2023-04-08T08:38:23;11.80;70.00
40538;DHT22;27925;41.874;12.526;2023-04-08T08:40:57;11.90;69.80
40538;DHT22;27925;41.874;12.526;2023-04-08T08:43:27;11.90;69.80
40538;DHT22;27925;41.874;12.526;2023-04-08T08:45:53;12.00;70.10
40538;DHT22;27925;41.874;12.526;2023-04-08T08:48:19;12.10;69.90
40538;DHT22;27925;41.874;12.526;2023-04-08T08:50:45;12.10;69.80
40538;DHT22;27925;41.874;12.526;2023-04-08T08:53:11;12.20;69.70
40538;DHT22;27925;41.874;12.526;2023-04-08T08:55:37;12.30;69.80
40538;DHT22;27925;41.874;12.526;2023-04-08T08:58:04;12.40;69.30
40538;DHT22;27925;41.874;12.526;2023-04-08T09:00:39;12.40;69.50
40538;DHT22;27925;41.874;12.526;2023-04-08T09:03:20;12.60;69.40
40538;DHT22;27925;41.874;12.526;2023-04-08T09:05:47;12.60;69.00
40538;DHT22;27925;41.874;12.526;2023-04-08T09:08:30;12.70;69.30
40538;DHT22;27925;41.874;12.526;2023-04-08T09:11:16;12.80;69.10
40538;DHT22;27925;41.874;12.526;2023-04-08T09:13:43;12.90;68.90
40538;DHT22;27925;41.874;12.526;2023-04-08T09:16:10;13.00;68.80
40538;DHT22;27925;41.874;12.526;2023-04-08T09:18:37;13.10;69.00
40538;DHT22;27925;41.874;12.526;2023-04-08T09:21:04;13.30;68.40
40538;DHT22;27925;41.874;12.526;2023-04-08T09:23:47;13.30;67.20
40538;DHT22;27925;41.874;12.526;2023-04-08T09:26:16;13.30;67.90
40538;DHT22;27925;41.874;12.526;2023-04-08T09:28:43;13.30;67.10
40538;DHT22;27925;41.874;12.526;2023-04-08T09:31:24;13.40;67.30
40538;DHT22;27925;41.874;12.526;2023-04-08T09:33:52;13.40;66.90
40538;DHT22;27925;41.874;12.526;2023-04-08T09:36:18;13.50;66.60
40538;DHT22;27925;41.874;12.526;2023-04-08T09:38:44;13.60;66.80
40538;DHT22;27925;41.874;12.526;2023-04-08T09:41:18;13.70;66.80
40538;DHT22;27925;41.874;12.526;2023-04-08T09:43:57;13.80;66.30
40538;DHT22;27925;41.874;12.526;2023-04-08T09:46:31;13.90;65.50
40538;DHT22;27925;41.874;12.526;2023-04-08T09:49:05;14.00;64.90
40538;DHT22;27925;41.874;12.526;2023-04-08T09:51:43;14.20;64.60
40538;DHT22;27925;41.874;12.526;2023-04-08T09:54:19;14.40;63.70
40538;DHT22;27925;41.874;12.526;2023-04-08T09:56:53;14.50;63.40
40538;DHT22;27925;41.874;12.526;2023-04-08T09:59:26;14.70;63.30
40538;DHT22;27925;41.874;12.526;2023-04-08T10:01:55;14.90;62.90
40538;DHT22;27925;41.874;12.526;2023-04-08T10:04:25;15.00;62.60
40538;DHT22;27925;41.874;12.526;2023-04-08T10:06:57;15.20;62.30
40538;DHT22;27925;41.874;12.526;2023-04-08T10:09:26;15.30;61.60
40538;DHT22;27925;41.874;12.526;2023-04-08T10:11:52;15.40;61.30
40538;DHT22;27925;41.874;12.526;2023-04-08T10:14:18;15.40;60.40
40538;DHT22;27925;41.874;12.526;2023-04-08T10:16:46;15.40;60.50
40538;DHT22;27925;41.874;12.526;2023-04-08T10:19:38;15.50;60.30
40538;DHT22;27925;41.874;12.526;2023-04-08T10:22:45;15.70;60.00
40538;DHT22;27925;41.874;12.526;2023-04-08T10:25:45;15.80;59.80
40538;DHT22;27925;41.874;12.526;2023-04-08T10:30:50;15.70;59.60
40538;DHT22;27925;41.874;12.526;2023-04-08T10:33:23;15.60;59.50
40538;DHT22;27925;41.874;12.526;2023-04-08T10:36:09;15.50;59.40
40538;DHT22;27925;41.874;12.526;2023-04-08T10:38:36;15.40;59.40
40538;DHT22;27925;41.874;12.526;2023-04-08T10:41:01;15.40;59.30
40538;DHT22;27925;41.874;12.526;2023-04-08T10:43:34;15.30;59.20
40538;DHT22;27925;41.874;12.526;2023-04-08T10:46:00;15.20;59.00
40538;DHT22;27925;41.874;12.526;2023-04-08T10:48:26;15.10;59.00
40538;DHT22;27925;41.874;12.526;2023-04-08T10:50:59;15.10;59.30
40538;DHT22;27925;41.874;12.526;2023-04-08T10:53:30;15.10;59.10
40538;DHT22;27925;41.874;12.526;2023-04-08T10:56:13;15.20;58.50
40538;DHT22;27925;41.874;12.526;2023-04-08T10:58:55;15.30;58.00
40538;DHT22;27925;41.874;12.526;2023-04-08T11:01:21;15.50;58.00
40538;DHT22;27925;41.874;12.526;2023-04-08T11:03:48;15.50;57.90
40538;DHT22;27925;41.874;12.526;2023-04-08T11:06:14;15.60;57.80
40538;DHT22;27925;41.874;12.526;2023-04-08T11:08:40;15.60;57.60
40538;DHT22;27925;41.874;12.526;2023-04-08T11:11:06;15.60;57.60
40538;DHT22;27925;41.874;12.526;2023-04-08T11:13:35;15.70;57.60
40538;DHT22;27925;41.874;12.526;2023-04-08T11:16:03;15.70;57.50
40538;DHT22;27925;41.874;12.526;2023-04-08T11:18:29;15.60;57.40
40538;DHT22;27925;41.874;12.526;2023-04-08T11:20:56;15.50;57.70
40538;DHT22;27925;41.874;12.526;2023-04-08T11:23:24;15.50;58.00
40538;DHT22;27925;41.874;12.526;2023-04-08T11:25:51;15.40;58.00
40538;DHT22;27925;41.874;12.526;2023-04-08T11:28:17;15.30;58.50
40538;DHT22;27925;41.874;12.526;2023-04-08T11:30:43;15.30;58.70
40538;DHT22;27925;41.874;12.526;2023-04-08T11:33:09;15.20;58.90
40538;DHT22;27925;41.874;12.526;2023-04-08T11:35:39;15.10;59.20
40538;DHT22;27925;41.874;12.526;2023-04-08T11:38:05;15.10;59.80
40538;DHT22;27925;41.874;12.526;2023-04-08T11:40:32;15.00;60.10
40538;DHT22;27925;41.874;12.526;2023-04-08T11:42:58;14.90;60.70
40538;DHT22;27925;41.874;12.526;2023-04-08T11:45:24;14.80;60.90
40538;DHT22;27925;41.874;12.526;2023-04-08T11:47:50;14.80;60.90
40538;DHT22;27925;41.874;12.526;2023-04-08T11:50:26;14.70;60.90
40538;DHT22;27925;41.874;12.526;2023-04-08T11:52:54;14.60;61.80
40538;DHT22;27925;41.874;12.526;2023-04-08T11:55:26;14.70;61.70
40538;DHT22;27925;41.874;12.526;2023-04-08T11:57:53;14.70;62.70
40538;DHT22;27925;41.874;12.526;2023-04-08T12:00:20;14.60;62.30
40538;DHT22;27925;41.874;12.526;2023-04-08T12:02:47;14.50;62.70
40538;DHT22;27925;41.874;12.526;2023-04-08T12:05:15;14.60;63.80
40538;DHT22;27925;41.874;12.526;2023-04-08T12:07:42;14.50;62.70
40538;DHT22;27925;41.874;12.526;2023-04-08T12:10:09;14.50;63.00
40538;DHT22;27925;41.874;12.526;2023-04-08T12:12:36;14.50;62.70
40538;DHT22;27925;41.874;12.526;2023-04-08T12:15:02;14.60;63.10
40538;DHT22;27925;41.874;12.526;2023-04-08T12:17:28;14.60;63.60
40538;DHT22;27925;41.874;12.526;2023-04-08T12:19:54;14.60;62.90
40538;DHT22;27925;41.874;12.526;2023-04-08T12:22:20;14.60;63.10
40538;DHT22;27925;41.874;12.526;2023-04-08T12:24:45;14.60;63.20
40538;DHT22;27925;41.874;12.526;2023-04-08T12:27:11;14.50;63.90
40538;DHT22;27925;41.874;12.526;2023-04-08T12:29:37;14.60;64.20
40538;DHT22;27925;41.874;12.526;2023-04-08T12:32:02;14.60;64.00
40538;DHT22;27925;41.874;12.526;2023-04-08T12:34:30;14.70;64.20
40538;DHT22;27925;41.874;12.526;2023-04-08T12:36:56;14.70;63.60
40538;DHT22;27925;41.874;12.526;2023-04-08T12:39:21;14.80;63.50
40538;DHT22;27925;41.874;12.526;2023-04-08T12:41:47;14.80;63.80
40538;DHT22;27925;41.874;12.526;2023-04-08T12:44:13;14.90;63.30
40538;DHT22;27925;41.874;12.526;2023-04-08T12:46:39;14.80;63.50
40538;DHT22;27925;41.874;12.526;2023-04-08T12:49:04;14.80;63.20
40538;DHT22;27925;41.874;12.526;2023-04-08T12:51:30;14.80;63.40
40538;DHT22;27925;41.874;12.526;2023-04-08T12:53:56;14.90;63.40
40538;DHT22;27925;41.874;12.526;2023-04-08T12:56:22;15.10;63.40
40538;DHT22;27925;41.874;12.526;2023-04-08T12:58:48;15.10;63.00
40538;DHT22;27925;41.874;12.526;2023-04-08T13:01:13;15.20;62.70
40538;DHT22;27925;41.874;12.526;2023-04-08T13:03:39;15.10;62.70
40538;DHT22;27925;41.874;12.526;2023-04-08T13:06:06;15.10;62.90
40538;DHT22;27925;41.874;12.526;2023-04-08T13:08:32;15.10;63.60
40538;DHT22;27925;41.874;12.526;2023-04-08T13:10:58;15.30;63.40
40538;DHT22;27925;41.874;12.526;2023-04-08T13:13:23;15.50;63.10
40538;DHT22;27925;41.874;12.526;2023-04-08T13:15:49;15.60;62.50
40538;DHT22;27925;41.874;12.526;2023-04-08T13:18:15;15.50;62.10
40538;DHT22;27925;41.874;12.526;2023-04-08T13:20:41;15.60;62.30
40538;DHT22;27925;41.874;12.526;2023-04-08T13:23:06;15.70;62.30
40538;DHT22;27925;41.874;12.526;2023-04-08T13:25:32;15.80;62.00
40538;DHT22;27925;41.874;12.526;2023-04-08T13:27:58;15.90;61.80
40538;DHT22;27925;41.874;12.526;2023-04-08T13:30:23;16.00;61.70
40538;DHT22;27925;41.874;12.526;2023-04-08T13:32:49;16.10;61.70
40538;DHT22;27925;41.874;12.526;2023-04-08T13:35:15;16.10;61.00
40538;DHT22;27925;41.874;12.526;2023-04-08T13:37:41;16.10;61.10
40538;DHT22;27925;41.874;12.526;2023-04-08T13:40:06;16.20;60.80
40538;DHT22;27925;41.874;12.526;2023-04-08T13:42:33;16.20;60.80
40538;DHT22;27925;41.874;12.526;2023-04-08T13:44:59;16.30;60.60
40538;DHT22;27925;41.874;12.526;2023-04-08T13:47:25;16.40;60.30
40538;DHT22;27925;41.874;12.526;2023-04-08T13:49:51;16.60;60.20
40538;DHT22;27925;41.874;12.526;2023-04-08T13:52:18;16.80;59.50
40538;DHT22;27925;41.874;12.526;2023-04-08T13:54:44;16.90;59.00
40538;DHT22;27925;41.874;12.526;2023-04-08T13:57:10;16.90;59.00
40538;DHT22;27925;41.874;12.526;2023-04-08T13:59:36;17.00;59.30
40538;DHT22;27925;41.874;12.526;2023-04-08T14:02:01;17.00;58.70
40538;DHT22;27925;41.874;12.526;2023-04-08T14:04:27;17.00;58.40
40538;DHT22;27925;41.874;12.526;2023-04-08T14:06:53;17.00;58.30
40538;DHT22;27925;41.874;12.526;2023-04-08T14:09:22;17.10;58.60
40538;DHT22;27925;41.874;12.526;2023-04-08T14:11:48;17.20;58.70
40538;DHT22;27925;41.874;12.526;2023-04-08T14:14:13;17.10;58.40
40538;DHT22;27925;41.874;12.526;2023-04-08T14:16:40;17.10;58.20
40538;DHT22;27925;41.874;12.526;2023-04-08T14:19:07;17.10;58.10
40538;DHT22;27925;41.874;12.526;2023-04-08T14:21:32;17.00;58.50
40538;DHT22;27925;41.874;12.526;2023-04-08T14:23:58;16.90;58.50
40538;DHT22;27925;41.874;12.526;2023-04-08T14:26:24;16.80;58.70
40538;DHT22;27925;41.874;12.526;2023-04-08T14:28:50;16.60;58.60
40538;DHT22;27925;41.874;12.526;2023-04-08T14:31:15;16.40;59.00
40538;DHT22;27925;41.874;12.526;2023-04-08T14:33:41;16.20;59.20
40538;DHT22;27925;41.874;12.526;2023-04-08T14:36:08;16.20;59.40
40538;DHT22;27925;41.874;12.526;2023-04-08T14:38:34;16.10;59.30
40538;DHT22;27925;41.874;12.526;2023-04-08T14:41:00;16.00;59.20
40538;DHT22;27925;41.874;12.526;2023-04-08T14:43:25;16.00;59.00
40538;DHT22;27925;41.874;12.526;2023-04-08T14:45:51;16.00;59.20
40538;DHT22;27925;41.874;12.526;2023-04-08T14:48:17;16.00;59.10
40538;DHT22;27925;41.874;12.526;2023-04-08T14:50:43;15.90;58.80
40538;DHT22;27925;41.874;12.526;2023-04-08T14:53:10;15.80;58.80
40538;DHT22;27925;41.874;12.526;2023-04-08T14:55:36;15.80;58.90
40538;DHT22;27925;41.874;12.526;2023-04-08T14:58:01;15.70;58.60
40538;DHT22;27925;41.874;12.526;2023-04-08T15:00:27;15.70;59.00
40538;DHT22;27925;41.874;12.526;2023-04-08T15:02:53;15.70;58.90
40538;DHT22;27925;41.874;12.526;2023-04-08T15:05:18;15.70;59.00
40538;DHT22;27925;41.874;12.526;2023-04-08T15:07:45;15.70;58.70
40538;DHT22;27925;41.874;12.526;2023-04-08T15:10:11;15.80;58.40
40538;DHT22;27925;41.874;12.526;2023-04-08T15:12:37;15.90;58.10
40538;DHT22;27925;41.874;12.526;2023-04-08T15:15:03;15.90;57.70
40538;DHT22;27925;41.874;12.526;2023-04-08T15:17:29;16.00;57.30
40538;DHT22;27925;41.874;12.526;2023-04-08T15:19:55;16.00;57.00
40538;DHT22;27925;41.874;12.526;2023-04-08T15:22:21;15.90;56.70
40538;DHT22;27925;41.874;12.526;2023-04-08T15:24:47;15.90;57.00
40538;DHT22;27925;41.874;12.526;2023-04-08T15:27:13;15.80;56.80
40538;DHT22;27925;41.874;12.526;2023-04-08T15:29:40;15.90;56.90